Aérodrome :
LOGIN :

S'inscrire | Disclaimer

   EN    FR    IT 

 










Légende :    VFR   VFR Marginal   IFR   IFR Intensif   IFR Très Intensif
Visi : 
Plafond : 
>= 8 km
>= 3000ft
5 à 8 km
1000 à 3000 ft
1500m à 5 km
500 à 1000 ft
800 à 1500m
200 à 500 ft
< 800m
< 200 ft
Symboles :   Orages  Brouillard  Fortes neiges  Fortes précipitations  Vent > 20 kt
SIGMETs :   Divers  Orages  Givrage  Turbulence  Onde Orograph.  Cendres Volcan.






- Altitude de l'aérodrome : 124 ft
- Code IATA : NHT


EGWU - RAF Northolt

DERNIER METAR :
  • 150450Z AUTO 25012KT 9999 // SCT048/// 05/01 Q0991

METARs EXPIRÉS :
  • 150350Z AUTO 26015KT 9999 // NCD 06/02 Q0990
  • 150250Z AUTO 25016KT 9999 // FEW036/// 06/04 Q0989

TAF TAF EGWU
Valide du 15 à 06h jusqu'au 16 à 00h UTC


150445Z 1506/1524 25017G28KT 9999 FEW022
PROB40
TEMPO 1506/1509 7000 SHRA SCT022
BECMG 1507/1509 23012KT
PROB30
TEMPO 1509/1516 23015G25KT 7000 SHRA SCT022
PROB40
TEMPO 1520/1524 20015G25KT 5000 +SHRA SCT012 BKN018CB



MET'MAP, la Météo Aéronautique d'un coup d'oeil ! - Copyright ORBIFLY Décembre 2007 - Disclaimer

ORBIFLY MET'MAP TEAM :

Programmation & Développement : Alexandra Zaïnal
Sur une idée originale de : Baudouin d'Aumeries
Assistance à la programmation : Marc-Olivier Méhu
Soutien technique & logistique : Manuel Goepfert

Contact : metmap@orbifly.com




SOURCES & CREDITS :

   NOAA